Terminal Aerodrome Forecast
Issued by NWS Blacksburg, VA

Current Version | Previous Version | Graphics & Text | Print | Product List | Glossary On
Versions: 1 2 3 4 5 6 7 8 9 10 11 12 13 14 15 16 17 18 19 20 21 22 23 24 25 26
000
FTUS41 KRNK 201123
TAFBLF
TAF
KBLF 201123Z 2012/2112 25005KT P6SM SCT040 OVC090
     FM201600 27009KT P6SM BKN045
     FM202000 25008KT P6SM SCT060
     FM210700 23007KT P6SM BKN070=

USA.gov is the U.S. government's official web portal to all federal, state and local government web resources and services.